Time;durP1;ratioP1;P1;durP2;ratioP2;P2;SDS_P1;SDS_P2;PMS_P1;PMS_P2;Temp;Humidity;BMP_temperature;BMP_pressure;BME280_temperature;BME280_humidity;BME280_pressure;Samples;Min_cycle;Max_cycle;Signal;HPM_P1;HPM_P2
2023/12/07 00:00:51;;;;;;;16.52;10.68;;;;;;;;;;5012606;28;20450;-86
2023/12/07 00:03:36;;;;;;;20.08;11.57;;;;;;;;;;5011973;28;20198;-86
2023/12/07 00:06:20;;;;;;;19.35;10.73;;;;;;;;;;5012303;28;20053;-86
2023/12/07 00:09:04;;;;;;;18.90;11.05;;;;;;;;;;5012547;28;20036;-87
2023/12/07 00:11:49;;;;;;;18.45;11.10;;;;;;;;;;5012255;28;20128;-87
2023/12/07 00:14:34;;;;;;;18.67;10.55;;;;;;;;;;5012090;28;20484;-86
2023/12/07 00:17:18;;;;;;;19.65;10.45;;;;;;;;;;5010811;28;20044;-87
2023/12/07 00:20:06;;;;;;;21.05;11.63;;;;;;;;;;5003254;28;20096;-87
2023/12/07 00:22:51;;;;;;;16.70;10.48;;;;;;;;;;5010574;28;20041;-87
2023/12/07 00:25:35;;;;;;;17.80;10.45;;;;;;;;;;5010794;28;20045;-87
2023/12/07 00:28:20;;;;;;;20.80;11.40;;;;;;;;;;5012291;28;20045;-87
2023/12/07 00:31:04;;;;;;;16.10;10.18;;;;;;;;;;5011926;28;20044;-86
2023/12/07 00:33:49;;;;;;;17.75;10.50;;;;;;;;;;5012083;28;20107;-86
2023/12/07 00:36:33;;;;;;;17.10;9.98;;;;;;;;;;5010367;28;20036;-86
2023/12/07 00:39:18;;;;;;;19.27;11.48;;;;;;;;;;5010845;28;20049;-86
2023/12/07 00:42:03;;;;;;;18.60;10.90;;;;;;;;;;5012049;28;20060;-87
2023/12/07 00:44:47;;;;;;;19.55;10.88;;;;;;;;;;5011300;28;20402;-87
2023/12/07 00:47:32;;;;;;;19.15;10.95;;;;;;;;;;5010473;28;20040;-86
2023/12/07 00:50:16;;;;;;;16.95;10.52;;;;;;;;;;5011930;28;20080;-87
2023/12/07 00:53:01;;;;;;;17.70;10.63;;;;;;;;;;5010765;28;20141;-87
2023/12/07 00:55:46;;;;;;;15.63;9.38;;;;;;;;;;5010842;28;20053;-86
2023/12/07 00:58:30;;;;;;;15.48;9.88;;;;;;;;;;4990795;28;20177;-87
2023/12/07 01:01:15;;;;;;;14.73;9.75;;;;;;;;;;4999317;28;20410;-86
2023/12/07 01:03:59;;;;;;;15.98;9.52;;;;;;;;;;5011556;28;20108;-87
2023/12/07 01:06:44;;;;;;;14.98;9.85;;;;;;;;;;5011271;28;20041;-87
2023/12/07 01:09:28;;;;;;;17.80;10.77;;;;;;;;;;5011237;28;20045;-86
2023/12/07 01:12:13;;;;;;;16.08;9.23;;;;;;;;;;5011592;28;20068;-87
2023/12/07 01:14:57;;;;;;;15.68;9.55;;;;;;;;;;5011657;28;20099;-87
2023/12/07 01:17:42;;;;;;;14.05;9.48;;;;;;;;;;5010947;28;21422;-87
2023/12/07 01:20:27;;;;;;;18.88;9.45;;;;;;;;;;4999407;28;20121;-86
2023/12/07 01:23:12;;;;;;;14.40;9.38;;;;;;;;;;4998091;28;20575;-87
2023/12/07 01:25:56;;;;;;;14.15;9.52;;;;;;;;;;5010394;28;20410;-87
2023/12/07 01:28:41;;;;;;;15.27;8.73;;;;;;;;;;5011551;28;20092;-87
2023/12/07 01:31:26;;;;;;;16.17;9.73;;;;;;;;;;5014264;28;20048;-87
2023/12/07 01:34:10;;;;;;;16.45;8.98;;;;;;;;;;5015543;28;20048;-87
2023/12/07 01:36:55;;;;;;;16.95;9.15;;;;;;;;;;5013981;28;20041;-87
2023/12/07 01:39:41;;;;;;;16.48;9.45;;;;;;;;;;5014658;28;20745;-87
2023/12/07 01:42:26;;;;;;;15.85;9.75;;;;;;;;;;5015316;28;20057;-87
2023/12/07 01:45:10;;;;;;;14.57;9.40;;;;;;;;;;5014077;28;20052;-87
2023/12/07 01:47:56;;;;;;;17.63;9.05;;;;;;;;;;5014575;28;20041;-87
2023/12/07 01:50:41;;;;;;;16.45;9.82;;;;;;;;;;5014660;28;20110;-86
2023/12/07 01:53:27;;;;;;;16.52;10.05;;;;;;;;;;5013779;28;20079;-87
2023/12/07 01:56:12;;;;;;;16.90;9.95;;;;;;;;;;5014372;28;20119;-86
2023/12/07 01:58:57;;;;;;;17.38;10.10;;;;;;;;;;5012336;28;20121;-87
2023/12/07 02:01:42;;;;;;;19.33;10.23;;;;;;;;;;5013052;28;20066;-87
2023/12/07 02:04:27;;;;;;;19.98;10.68;;;;;;;;;;5013648;28;20140;-87
2023/12/07 02:07:12;;;;;;;17.02;10.32;;;;;;;;;;5013385;28;20066;-87
2023/12/07 02:09:57;;;;;;;20.27;11.10;;;;;;;;;;5013085;28;20121;-87
2023/12/07 02:12:42;;;;;;;16.10;10.65;;;;;;;;;;5000967;28;20422;-87
2023/12/07 02:15:26;;;;;;;22.23;11.10;;;;;;;;;;5013323;28;20711;-87
2023/12/07 02:18:16;;;;;;;17.25;10.27;;;;;;;;;;5013866;28;20517;-87
2023/12/07 02:21:01;;;;;;;20.23;11.40;;;;;;;;;;4999216;28;20088;-87
2023/12/07 02:23:47;;;;;;;20.50;11.25;;;;;;;;;;5012851;28;20113;-87
2023/12/07 02:26:34;;;;;;;21.05;11.43;;;;;;;;;;5006455;28;20058;-86
2023/12/07 02:29:19;;;;;;;21.13;11.93;;;;;;;;;;4993556;28;20438;-86
2023/12/07 02:32:04;;;;;;;22.45;10.90;;;;;;;;;;4996762;28;20053;-87
2023/12/07 02:34:49;;;;;;;22.50;11.13;;;;;;;;;;5012299;28;20045;-86
2023/12/07 02:37:37;;;;;;;25.40;12.45;;;;;;;;;;5012100;28;20100;-87
2023/12/07 02:40:23;;;;;;;28.15;12.95;;;;;;;;;;5012585;28;20033;-87
2023/12/07 02:43:08;;;;;;;23.15;12.10;;;;;;;;;;5013044;28;20108;-87
2023/12/07 02:45:53;;;;;;;23.20;12.23;;;;;;;;;;4998479;28;20800;-87
2023/12/07 02:48:37;;;;;;;20.98;12.32;;;;;;;;;;5012942;28;20120;-87
2023/12/07 02:51:22;;;;;;;23.95;12.90;;;;;;;;;;5011895;28;20057;-87
2023/12/07 02:54:07;;;;;;;22.85;12.85;;;;;;;;;;5012722;28;20037;-88
2023/12/07 02:56:51;;;;;;;25.33;13.38;;;;;;;;;;4975060;28;1089756;-86
2023/12/07 02:59:36;;;;;;;22.33;12.95;;;;;;;;;;5013892;28;20421;-86
2023/12/07 03:02:20;;;;;;;22.40;11.98;;;;;;;;;;4999558;28;20406;-86
2023/12/07 03:05:06;;;;;;;26.00;13.38;;;;;;;;;;5013342;28;20111;-87
2023/12/07 03:07:51;;;;;;;22.98;12.63;;;;;;;;;;5013151;28;20087;-86
2023/12/07 03:10:35;;;;;;;23.58;13.02;;;;;;;;;;5013501;28;20088;-87
2023/12/07 03:13:20;;;;;;;22.35;12.13;;;;;;;;;;5012639;28;20049;-87
2023/12/07 03:16:08;;;;;;;24.38;12.60;;;;;;;;;;5012922;28;20465;-87
2023/12/07 03:18:53;;;;;;;22.50;12.45;;;;;;;;;;5012953;28;20430;-86
2023/12/07 03:21:41;;;;;;;26.05;12.65;;;;;;;;;;5013321;28;20044;-87
2023/12/07 03:24:25;;;;;;;26.80;13.27;;;;;;;;;;5013308;28;20401;-86
2023/12/07 03:27:10;;;;;;;19.38;11.77;;;;;;;;;;5012283;28;20049;-87
2023/12/07 03:29:54;;;;;;;21.80;12.25;;;;;;;;;;5011661;28;20486;-87
2023/12/07 03:32:39;;;;;;;23.65;12.00;;;;;;;;;;5012189;28;20104;-87
2023/12/07 03:35:24;;;;;;;20.02;11.45;;;;;;;;;;5006613;28;20446;-87
2023/12/07 03:38:08;;;;;;;22.08;12.38;;;;;;;;;;5006874;28;20121;-86
2023/12/07 03:40:53;;;;;;;20.60;12.43;;;;;;;;;;4992133;28;20037;-86
2023/12/07 03:43:37;;;;;;;20.85;12.02;;;;;;;;;;5009416;28;20088;-87
2023/12/07 03:46:22;;;;;;;23.40;12.40;;;;;;;;;;5011990;28;20770;-87
2023/12/07 03:49:06;;;;;;;22.25;12.32;;;;;;;;;;5012470;28;20041;-87
2023/12/07 03:51:51;;;;;;;24.45;12.38;;;;;;;;;;5010421;28;20124;-86
2023/12/07 03:54:37;;;;;;;24.80;12.07;;;;;;;;;;5011700;28;20096;-87
2023/12/07 03:57:21;;;;;;;24.48;12.85;;;;;;;;;;5011651;28;20057;-87
2023/12/07 04:00:09;;;;;;;30.55;13.32;;;;;;;;;;5012253;28;20083;-87
2023/12/07 04:02:54;;;;;;;27.13;13.50;;;;;;;;;;5012109;28;20111;-87
2023/12/07 04:05:38;;;;;;;31.65;12.77;;;;;;;;;;5011588;28;20095;-86
2023/12/07 04:08:23;;;;;;;37.78;14.93;;;;;;;;;;5012596;28;20048;-87
2023/12/07 04:11:07;;;;;;;28.55;12.82;;;;;;;;;;5011735;28;20060;-87
2023/12/07 04:13:52;;;;;;;20.42;11.45;;;;;;;;;;5011814;28;20045;-85
2023/12/07 04:16:36;;;;;;;27.92;12.73;;;;;;;;;;5012489;28;20112;-86
2023/12/07 04:19:21;;;;;;;28.95;12.75;;;;;;;;;;5012131;28;20041;-86
2023/12/07 04:22:06;;;;;;;27.55;13.32;;;;;;;;;;5010932;28;20086;-87
2023/12/07 04:24:50;;;;;;;28.00;12.88;;;;;;;;;;5012289;28;20080;-86
2023/12/07 04:27:35;;;;;;;29.10;13.30;;;;;;;;;;5011192;28;20056;-87
2023/12/07 04:30:19;;;;;;;29.42;12.82;;;;;;;;;;5011280;28;20044;-87
2023/12/07 04:33:04;;;;;;;28.85;13.80;;;;;;;;;;5010585;28;20045;-86
2023/12/07 04:35:49;;;;;;;29.38;14.38;;;;;;;;;;5002337;28;20041;-87
2023/12/07 04:38:33;;;;;;;24.98;12.63;;;;;;;;;;5009871;28;20041;-86
2023/12/07 04:41:18;;;;;;;30.10;13.60;;;;;;;;;;5011974;28;20041;-87
2023/12/07 04:44:02;;;;;;;31.75;13.85;;;;;;;;;;5011508;28;20040;-87
2023/12/07 04:46:47;;;;;;;35.58;15.30;;;;;;;;;;5010908;28;20037;-87
2023/12/07 04:49:31;;;;;;;32.35;15.57;;;;;;;;;;5012077;28;20045;-86
2023/12/07 04:52:16;;;;;;;47.50;16.42;;;;;;;;;;4996541;28;20100;-86
2023/12/07 04:55:00;;;;;;;34.90;14.55;;;;;;;;;;5010400;28;20556;-87
2023/12/07 04:57:45;;;;;;;30.15;14.90;;;;;;;;;;5011620;28;20417;-87
2023/12/07 05:00:29;;;;;;;33.95;15.15;;;;;;;;;;5011642;28;20168;-86
2023/12/07 05:03:14;;;;;;;32.03;14.98;;;;;;;;;;5011163;28;20513;-86
2023/12/07 05:05:58;;;;;;;41.28;16.08;;;;;;;;;;5011112;28;20038;-85
2023/12/07 05:08:43;;;;;;;36.10;14.95;;;;;;;;;;5010748;28;20464;-87
2023/12/07 05:11:27;;;;;;;38.10;15.60;;;;;;;;;;5000359;28;20059;-86
2023/12/07 05:14:12;;;;;;;41.05;16.42;;;;;;;;;;5010983;28;20567;-86
2023/12/07 05:16:57;;;;;;;36.03;15.50;;;;;;;;;;5011662;28;20045;-86
2023/12/07 05:19:41;;;;;;;35.60;15.15;;;;;;;;;;5011688;28;20045;-86
2023/12/07 05:22:26;;;;;;;38.60;15.70;;;;;;;;;;5011409;28;20052;-87
2023/12/07 05:25:11;;;;;;;43.65;17.08;;;;;;;;;;5011211;28;20041;-87
2023/12/07 05:27:57;;;;;;;43.80;17.27;;;;;;;;;;5011443;28;20072;-87
2023/12/07 05:30:41;;;;;;;37.10;15.05;;;;;;;;;;5010387;28;20045;-87
2023/12/07 05:33:25;;;;;;;47.22;17.05;;;;;;;;;;5010336;28;20501;-87
2023/12/07 05:36:11;;;;;;;37.65;15.43;;;;;;;;;;4998038;28;20041;-86
2023/12/07 05:38:56;;;;;;;42.03;16.73;;;;;;;;;;4998398;28;20036;-87
2023/12/07 05:41:41;;;;;;;43.25;16.08;;;;;;;;;;5011314;28;20406;-86
2023/12/07 05:44:25;;;;;;;41.92;17.55;;;;;;;;;;5009862;28;20041;-86
2023/12/07 05:47:10;;;;;;;41.40;16.75;;;;;;;;;;4994459;28;20105;-86
2023/12/07 05:49:58;;;;;;;50.75;17.95;;;;;;;;;;5011324;28;20127;-87
2023/12/07 05:52:42;;;;;;;48.40;17.55;;;;;;;;;;5010362;28;20053;-87
2023/12/07 05:55:27;;;;;;;48.17;18.98;;;;;;;;;;5009668;28;20099;-87
2023/12/07 05:58:11;;;;;;;42.97;16.90;;;;;;;;;;5009857;28;20080;-87
2023/12/07 06:00:56;;;;;;;47.33;18.02;;;;;;;;;;5011071;28;20052;-87
2023/12/07 06:03:41;;;;;;;53.70;20.00;;;;;;;;;;5010982;28;20088;-86
2023/12/07 06:06:26;;;;;;;54.10;18.42;;;;;;;;;;5009720;28;20040;-87
2023/12/07 06:09:10;;;;;;;55.83;20.30;;;;;;;;;;5009518;28;20053;-87
2023/12/07 06:11:55;;;;;;;63.60;20.42;;;;;;;;;;5010086;28;20076;-87
2023/12/07 06:14:40;;;;;;;58.30;21.10;;;;;;;;;;5011547;28;20041;-87
2023/12/07 06:17:24;;;;;;;64.32;21.27;;;;;;;;;;5013038;28;20100;-87
2023/12/07 06:20:09;;;;;;;63.03;20.27;;;;;;;;;;5014096;28;20049;-87
2023/12/07 06:22:54;;;;;;;60.78;20.98;;;;;;;;;;4998548;28;20057;-86
2023/12/07 06:25:39;;;;;;;61.30;20.88;;;;;;;;;;5013634;28;20048;-87
2023/12/07 06:28:24;;;;;;;65.22;22.77;;;;;;;;;;5013974;28;20049;-87
2023/12/07 06:31:09;;;;;;;68.05;22.23;;;;;;;;;;5012766;28;20054;-86
2023/12/07 06:33:53;;;;;;;67.80;22.95;;;;;;;;;;5014458;28;20513;-87
2023/12/07 06:36:38;;;;;;;74.18;22.80;;;;;;;;;;4999269;28;20037;-87
2023/12/07 06:39:22;;;;;;;68.30;25.05;;;;;;;;;;5013670;28;20040;-87
2023/12/07 06:42:07;;;;;;;70.97;24.98;;;;;;;;;;5013158;28;20068;-87
2023/12/07 06:44:52;;;;;;;64.03;24.02;;;;;;;;;;5013301;28;20107;-88
2023/12/07 06:47:40;;;;;;;66.90;23.27;;;;;;;;;;5013038;28;20092;-87
2023/12/07 06:50:25;;;;;;;71.40;25.95;;;;;;;;;;5012367;28;20096;-87
2023/12/07 06:53:09;;;;;;;62.33;24.65;;;;;;;;;;5014047;28;20103;-86
2023/12/07 06:55:54;;;;;;;65.55;25.05;;;;;;;;;;5013635;28;20068;-87
2023/12/07 06:58:39;;;;;;;72.18;25.98;;;;;;;;;;5012745;28;20552;-87
2023/12/07 07:01:23;;;;;;;65.53;24.23;;;;;;;;;;5012404;28;20044;-87
2023/12/07 07:04:08;;;;;;;66.72;23.10;;;;;;;;;;5014125;28;20044;-87
2023/12/07 07:06:53;;;;;;;69.30;23.77;;;;;;;;;;5013820;28;20045;-87
2023/12/07 07:09:38;;;;;;;59.90;24.40;;;;;;;;;;5013462;28;20040;-87
2023/12/07 07:12:22;;;;;;;78.75;25.65;;;;;;;;;;5012621;28;20069;-86
2023/12/07 07:15:08;;;;;;;80.63;26.38;;;;;;;;;;5013788;28;20060;-87
2023/12/07 07:17:53;;;;;;;62.58;22.65;;;;;;;;;;5012472;28;20541;-87
2023/12/07 07:20:37;;;;;;;69.63;24.27;;;;;;;;;;5012089;28;20414;-87
2023/12/07 07:23:22;;;;;;;69.18;23.95;;;;;;;;;;5001574;28;20124;-87
2023/12/07 07:26:06;;;;;;;76.55;25.38;;;;;;;;;;5011230;28;20100;-87
2023/12/07 07:28:54;;;;;;;66.78;23.33;;;;;;;;;;5013439;28;20041;-87
2023/12/07 07:31:39;;;;;;;70.60;25.15;;;;;;;;;;5012768;28;20052;-87
2023/12/07 07:34:25;;;;;;;65.20;24.60;;;;;;;;;;5012537;28;20053;-87
2023/12/07 07:37:09;;;;;;;72.82;26.88;;;;;;;;;;5013408;28;20041;-87
2023/12/07 07:39:54;;;;;;;64.78;24.15;;;;;;;;;;5013029;28;20077;-87
2023/12/07 07:42:39;;;;;;;74.35;25.75;;;;;;;;;;5011725;28;20048;-87
2023/12/07 07:45:24;;;;;;;71.65;25.75;;;;;;;;;;5011484;28;20096;-87
2023/12/07 07:48:09;;;;;;;77.75;26.33;;;;;;;;;;5012968;28;20056;-87
2023/12/07 07:50:53;;;;;;;92.97;29.60;;;;;;;;;;4992499;28;20125;-87
2023/12/07 07:53:38;;;;;;;73.70;26.20;;;;;;;;;;5007106;28;20688;-88
2023/12/07 07:56:22;;;;;;;78.53;26.75;;;;;;;;;;5012051;28;20107;-87
2023/12/07 07:59:07;;;;;;;103.63;29.50;;;;;;;;;;5012746;28;20138;-87
2023/12/07 08:01:52;;;;;;;87.13;29.58;;;;;;;;;;5011865;28;20048;-88
2023/12/07 08:04:36;;;;;;;74.53;27.88;;;;;;;;;;5012579;28;20410;-86
2023/12/07 08:07:21;;;;;;;71.70;27.60;;;;;;;;;;5012481;28;20096;-86
2023/12/07 08:10:06;;;;;;;96.75;30.40;;;;;;;;;;5011731;28;20064;-87
2023/12/07 08:12:50;;;;;;;94.13;29.98;;;;;;;;;;5012464;28;20073;-86
2023/12/07 08:15:35;;;;;;;73.07;31.40;;;-0.80;81.40;;;;;;5011835;28;20060;-87
2023/12/07 08:18:19;;;;;;;86.68;31.65;;;-0.60;81.60;;;;;;5012688;28;20044;-87
2023/12/07 08:21:04;;;;;;;73.25;28.58;;;-0.50;81.60;;;;;;5012460;28;20040;-87
2023/12/07 08:23:48;;;;;;;77.28;31.30;;;-0.50;81.60;;;;;;4997714;28;20104;-87
2023/12/07 08:26:32;;;;;;;80.72;32.67;;;-0.40;81.70;;;;;;5012010;28;20394;-86
2023/12/07 08:29:17;;;;;;;87.60;32.40;;;;;;;;;;5011260;28;20124;-86
2023/12/07 08:32:01;;;;;;;73.28;29.73;;;;;;;;;;5012122;28;20513;-88
2023/12/07 08:34:46;;;;;;;73.55;29.63;;;;;;;;;;5012015;28;20045;-88
2023/12/07 08:37:31;;;;;;;77.57;30.30;;;;;;;;;;5001586;28;20066;-88
2023/12/07 08:40:16;;;;;;;75.40;29.08;;;;;;;;;;5012864;28;20080;-87
2023/12/07 08:43:00;;;;;;;78.57;30.23;;;;;;;;;;5014362;28;20472;-87
2023/12/07 08:45:45;;;;;;;57.53;26.80;;;;;;;;;;5013106;28;20645;-88
2023/12/07 08:48:29;;;;;;;76.22;29.23;;;;;;;;;;5011673;28;20052;-87
2023/12/07 08:51:14;;;;;;;74.97;29.92;;;;;;;;;;5012903;28;20497;-87
2023/12/07 08:53:58;;;;;;;71.05;30.38;;;;;;;;;;5011941;28;20397;-88
2023/12/07 08:56:44;;;;;;;71.22;27.83;;;;;;;;;;4992228;28;20101;-87
2023/12/07 08:59:30;;;;;;;68.10;28.05;;;;;;;;;;4999845;28;20044;-86
2023/12/07 09:02:15;;;;;;;64.43;26.13;;;;;;;;;;5014446;28;20076;-88
2023/12/07 09:04:59;;;;;;;71.25;30.80;;;;;;;;;;4991541;28;20049;-88
2023/12/07 09:07:44;;;;;;;65.03;26.58;;;;;;;;;;5009994;28;20403;-88
2023/12/07 09:10:29;;;;;;;64.30;26.95;;;;;;;;;;5010370;28;20477;-86
2023/12/07 09:13:13;;;;;;;64.75;27.23;;;;;;;;;;5010858;28;20052;-88
2023/12/07 09:15:58;;;;;;;61.13;26.80;;;;;;;;;;5010700;28;20133;-88
2023/12/07 09:18:45;;;;;;;67.93;27.50;;;;;;;;;;5011265;28;20049;-88
2023/12/07 09:21:29;;;;;;;61.20;27.10;;;;;;;;;;5011404;28;20048;-86
2023/12/07 09:24:14;;;;;;;61.15;25.70;;;;;;;;;;5010495;28;20044;-87
2023/12/07 09:26:59;;;;;;;57.45;26.33;;;;;;;;;;5010700;28;20217;-87
2023/12/07 09:29:43;;;;;;;63.13;26.08;;;;;;;;;;5009890;28;20109;-88
2023/12/07 09:32:28;;;;;;;63.08;27.88;;;;;;;;;;5011474;28;20418;-87
2023/12/07 09:35:19;;;;;;;51.45;25.15;;;;;;;;;;5006555;28;20089;-87
2023/12/07 09:38:03;;;;;;;60.75;25.92;;;-0.30;81.50;;;;;;5004377;28;20152;-87
2023/12/07 09:40:52;;;;;;;51.83;24.15;;;;;;;;;;5009960;28;20041;-87
2023/12/07 09:43:37;;;;;;;50.83;24.45;;;;;;;;;;5010777;28;20052;-88
2023/12/07 09:46:22;;;;;;;53.70;24.67;;;;;;;;;;5010452;28;20060;-87
2023/12/07 09:49:07;;;;;;;52.80;24.42;;;;;;;;;;5010861;28;20033;-87
2023/12/07 09:51:53;;;;;;;52.97;25.50;;;;;;;;;;4995195;28;20057;-87
2023/12/07 09:54:40;;;;;;;52.40;25.33;;;;;;;;;;4994221;28;20129;-86
2023/12/07 09:57:25;;;;;;;54.60;25.00;;;;;;;;;;5012318;28;20378;-88
2023/12/07 10:00:13;;;;;;;49.22;24.98;;;;;;;;;;5015131;28;20410;-87
2023/12/07 10:02:58;;;;;;;46.05;23.55;;;;;;;;;;5014599;28;20489;-87
2023/12/07 10:06:02;;;;;;;45.22;24.23;;;;;;;;;;5013385;28;20033;-88
2023/12/07 10:08:47;;;;;;;50.95;25.38;;;;;;;;;;5013291;28;20512;-87
2023/12/07 10:11:31;;;;;;;44.90;24.05;;;;;;;;;;5013834;28;20417;-87
2023/12/07 10:14:16;;;;;;;50.03;25.38;;;;;;;;;;5013625;28;20113;-87
2023/12/07 10:17:00;;;;;;;46.22;24.00;;;;;;;;;;5013245;28;20585;-87
2023/12/07 10:19:45;;;;;;;40.55;23.63;;;;;;;;;;5014400;28;20032;-87
2023/12/07 10:22:31;;;;;;;46.35;24.88;;;;;;;;;;5013371;28;20471;-87
2023/12/07 10:25:15;;;;;;;42.47;22.92;;;;;;;;;;5013657;28;20044;-88
2023/12/07 10:28:00;;;;;;;42.00;23.50;;;;;;;;;;5013873;28;20040;-87
2023/12/07 10:30:45;;;;;;;45.28;22.33;;;;;;;;;;4999877;28;20041;-87
2023/12/07 10:33:30;;;;;;;39.53;21.25;;;;;;;;;;5002738;28;20049;-87
2023/12/07 10:36:14;;;;;;;36.97;20.02;;;;;;;;;;5001957;28;20506;-87
2023/12/07 10:38:59;;;;;;;37.15;20.67;;;;;;;;;;5000185;28;20057;-87
2023/12/07 10:41:44;;;;;;;34.10;18.92;;;;;;;;;;5012562;28;20536;-87
2023/12/07 10:44:29;;;;;;;38.45;19.83;;;;;;;;;;5014323;28;20037;-86
2023/12/07 10:47:14;;;;;;;35.95;19.98;;;;;;;;;;5014020;28;20124;-87
2023/12/07 10:50:00;;;;;;;39.45;21.10;;;;;;;;;;5013703;28;20045;-88
2023/12/07 10:52:46;;;;;;;36.55;19.95;;;;;;;;;;5013520;28;20049;-86
2023/12/07 10:55:34;;;;;;;38.40;20.77;;;;;;;;;;5012820;28;20132;-86
2023/12/07 10:58:20;;;;;;;42.63;22.50;;;;;;;;;;5013796;28;20123;-86
2023/12/07 11:01:06;;;;;;;46.45;22.08;;;;;;;;;;5013169;28;20072;-87
2023/12/07 11:03:52;;;;;;;47.55;23.27;;;;;;;;;;5013268;28;20037;-86
2023/12/07 11:06:37;;;;;;;53.95;21.88;;;;;;;;;;5013855;28;20041;-86
2023/12/07 11:09:24;;;;;;;43.83;20.10;;;;;;;;;;5013592;28;20493;-87
2023/12/07 11:12:17;;;;;;;39.83;20.65;;;;;;;;;;5013245;28;20049;-86
2023/12/07 11:15:02;;;;;;;39.25;20.05;;;;;;;;;;5013330;28;20084;-86
2023/12/07 11:17:52;;;;;;;50.47;22.05;;;;;;;;;;5012120;28;20044;-86
2023/12/07 11:20:45;;;;;;;52.67;21.25;;;;;;;;;;5013552;28;20088;-86
2023/12/07 11:23:30;;;;;;;44.53;20.13;;;;;;;;;;5013454;28;20121;-86
2023/12/07 11:26:14;;;;;;;59.47;21.98;;;;;;;;;;5012077;28;20045;-86
2023/12/07 11:28:59;;;;;;;66.13;21.45;;;;;;;;;;5012934;28;20040;-87
2023/12/07 11:31:44;;;;;;;53.30;21.33;;;;;;;;;;5013308;28;20048;-86
2023/12/07 11:34:35;;;;;;;63.15;24.63;;;;;;;;;;5013107;28;20037;-87
2023/12/07 11:37:20;;;;;;;69.57;22.48;;;;;;;;;;5013216;28;20045;-86
2023/12/07 11:40:05;;;;;;;66.53;23.05;;;;;;;;;;5012516;28;20045;-86
2023/12/07 11:42:50;;;;;;;70.53;21.13;;;;;;;;;;5013079;28;20057;-86
2023/12/07 11:45:38;;;;;;;64.50;20.88;;;;;;;;;;5011938;28;20037;-86
2023/12/07 11:48:22;;;;;;;66.28;22.50;;;;;;;;;;5013101;28;20117;-86
2023/12/07 11:51:07;;;;;;;72.10;22.02;;;;;;;;;;5012488;28;20103;-86
2023/12/07 11:53:52;;;;;;;73.90;21.92;;;;;;;;;;5011279;28;20121;-86
2023/12/07 11:56:36;;;;;;;86.25;24.58;;;;;;;;;;5012918;28;20033;-86
2023/12/07 11:59:22;;;;;;;69.25;22.75;;;;;;;;;;5012932;28;20069;-86
2023/12/07 12:02:06;;;;;;;64.53;22.27;;;;;;;;;;5011138;28;20041;-86
2023/12/07 12:04:52;;;;;;;72.97;21.60;;;;;;;;;;5011493;28;20045;-85
2023/12/07 12:07:37;;;;;;;71.93;23.50;;;;;;;;;;5012445;28;20036;-86
2023/12/07 12:10:25;;;;;;;75.78;23.92;;;;;;;;;;5011685;28;20134;-86
2023/12/07 12:13:10;;;;;;;75.85;24.65;;;;;;;;;;5010335;28;20131;-86
2023/12/07 12:15:55;;;;;;;68.10;23.55;;;;;;;;;;5010946;28;20033;-86
2023/12/07 12:18:40;;;;;;;74.53;26.38;;;;;;;;;;5011458;28;20505;-86
2023/12/07 12:21:25;;;;;;;93.30;28.55;;;;;;;;;;5011324;28;20088;-86
2023/12/07 12:24:11;;;;;;;81.80;23.88;;;;;;;;;;5011706;28;20072;-86
2023/12/07 12:26:56;;;;;;;89.18;27.08;;;;;;;;;;5011007;28;20114;-85
2023/12/07 12:29:41;;;;;;;84.63;26.98;;;;;;;;;;5011000;28;20041;-86
2023/12/07 12:32:25;;;;;;;79.35;27.67;;;;;;;;;;5012279;28;20057;-86
2023/12/07 12:35:11;;;;;;;74.20;26.23;;;;;;;;;;5007995;28;20556;-85
2023/12/07 12:37:56;;;;;;;85.53;28.77;;;;;;;;;;5004518;28;20096;-86
2023/12/07 12:40:41;;;;;;;79.85;28.45;;;;;;;;;;4991652;28;20057;-86
2023/12/07 12:43:26;;;;;;;78.20;27.40;;;;;;;;;;5007740;28;20044;-85
2023/12/07 12:46:11;;;;;;;79.38;28.63;;;;;;;;;;5011569;28;20040;-86
2023/12/07 12:48:57;;;;;;;80.47;27.83;;;;;;;;;;5010923;28;20122;-86
2023/12/07 12:51:42;;;;;;;92.70;30.35;;;;;;;;;;5012070;28;20414;-86
2023/12/07 12:54:32;;;;;;;117.00;34.08;;;;;;;;;;5011985;28;20045;-85
2023/12/07 12:57:18;;;;;;;112.90;32.63;;;;;;;;;;5011193;28;20098;-86
2023/12/07 13:00:03;;;;;;;114.07;34.47;;;;;;;;;;5011360;28;20124;-86
2023/12/07 13:02:47;;;;;;;132.40;34.83;;;;;;;;;;5011821;28;20084;-86
2023/12/07 13:05:34;;;;;;;111.15;33.28;;;;;;;;;;5011631;28;20402;-86
2023/12/07 13:08:19;;;;;;;145.07;34.53;;;;;;;;;;5010235;28;20095;-86
2023/12/07 13:11:03;;;;;;;150.07;39.00;;;;;;;;;;4995403;28;20072;-86
2023/12/07 13:13:48;;;;;;;135.43;34.53;;;;;;;;;;5011798;28;20053;-85
2023/12/07 13:16:32;;;;;;;128.30;34.10;;;;;;;;;;5011656;28;20037;-86
2023/12/07 13:19:19;;;;;;;124.78;32.63;;;;;;;;;;5009939;28;20053;-86
2023/12/07 13:22:04;;;;;;;100.22;29.63;;;;;;;;;;5009853;28;20200;-86
2023/12/07 13:24:52;;;;;;;115.15;30.02;;;;;;;;;;5015021;28;20144;-85
2023/12/07 13:27:37;;;;;;;121.60;33.38;;;;;;;;;;5015540;28;20052;-85
2023/12/07 13:30:21;;;;;;;132.90;34.20;;;;;;;;;;5015110;28;20041;-86
2023/12/07 13:33:07;;;;;;;121.00;31.95;;;;;;;;;;5014001;28;20045;-85
2023/12/07 13:35:54;;;;;;;117.60;31.48;;;;;;;;;;5005243;28;20045;-86
2023/12/07 13:38:40;;;;;;;124.22;31.75;;;;;;;;;;5013949;28;20040;-86
2023/12/07 13:41:25;;;;;;;135.10;32.83;;;;;;;;;;5015174;28;20041;-86
2023/12/07 13:44:09;;;;;;;125.80;32.30;;;;;;;;;;5013883;28;20497;-85
2023/12/07 13:46:54;;;;;;;155.35;34.55;;;;;;;;;;5013991;28;20425;-86
2023/12/07 13:49:38;;;;;;;106.65;32.22;;;;;;;;;;5015603;28;20072;-86
2023/12/07 13:52:23;;;;;;;123.05;32.60;;;;;;;;;;5014451;28;20080;-86
2023/12/07 13:55:09;;;;;;;114.72;32.85;;;;;;;;;;5013631;28;20152;-85
2023/12/07 13:57:56;;;;;;;146.30;34.83;;;;;;;;;;4994280;28;20422;-85
2023/12/07 14:00:45;;;;;;;154.25;35.03;;;;;;;;;;5012627;28;20056;-86
2023/12/07 14:03:29;;;;;;;148.20;34.38;;;;;;;;;;5014379;28;20091;-86
2023/12/07 14:06:22;;;;;;;129.13;33.55;;;;;;;;;;5013499;28;20061;-86
2023/12/07 14:09:06;;;;;;;130.43;34.15;;;;;;;;;;5014701;28;20079;-86
2023/12/07 14:11:51;;;;;;;134.20;34.28;;;;;;;;;;5014642;28;20065;-86
2023/12/07 14:14:35;;;;;;;123.97;34.20;;;;;;;;;;4994253;28;20088;-86
2023/12/07 14:17:21;;;;;;;144.18;34.47;;;;;;;;;;5008972;28;20069;-86
2023/12/07 14:20:09;;;;;;;123.50;33.35;;;;;;;;;;5013695;28;20048;-86
2023/12/07 14:22:55;;;;;;;141.63;32.97;;;;;;;;;;5014514;28;20098;-86
2023/12/07 14:25:40;;;;;;;143.20;33.53;;;;;;;;;;5013668;28;20092;-86
2023/12/07 14:28:25;;;;;;;158.00;33.47;;;;;;;;;;5013374;28;20072;-85
2023/12/07 14:31:16;;;;;;;151.48;31.92;;;;;;;;;;5013694;28;20092;-86
2023/12/07 14:34:00;;;;;;;161.20;35.25;;;;;;;;;;5013489;28;20049;-86
2023/12/07 14:36:45;;;;;;;150.77;34.75;;;;;;;;;;4998992;28;20501;-86
2023/12/07 14:39:30;;;;;;;172.02;35.78;;;;;;;;;;5013140;28;20048;-86
2023/12/07 14:42:15;;;;;;;157.85;32.78;;;;;;;;;;5013740;28;20085;-86
2023/12/07 14:45:00;;;;;;;175.05;36.72;;;;;;;;;;5013275;28;20040;-86
2023/12/07 14:47:45;;;;;;;179.02;33.92;;;;;;;;;;5014275;28;20045;-86
2023/12/07 14:50:30;;;;;;;168.35;37.03;;;;;;;;;;5013427;28;20044;-85
2023/12/07 14:53:15;;;;;;;160.52;33.40;;;;;;;;;;5012957;28;20104;-85
2023/12/07 14:56:00;;;;;;;157.20;33.00;;;;;;;;;;5014246;28;20413;-86
2023/12/07 14:58:44;;;;;;;183.88;38.78;;;;;;;;;;5013724;28;20061;-85
2023/12/07 15:01:30;;;;;;;170.48;35.80;;;;;;;;;;5013631;28;20071;-86
2023/12/07 15:04:14;;;;;;;187.02;34.83;;;;;;;;;;5012775;28;20080;-85
2023/12/07 15:07:00;;;;;;;164.48;35.10;;;;;;;;;;4993550;28;20054;-86
2023/12/07 15:09:48;;;;;;;168.82;35.38;;;;;;;;;;5002359;28;20045;-86
2023/12/07 15:12:32;;;;;;;167.75;36.00;;;;;;;;;;5012232;28;20068;-86
2023/12/07 15:15:17;;;;;;;159.95;37.25;;;;;;;;;;5013850;28;20080;-86
2023/12/07 15:18:01;;;;;;;189.65;40.15;;;;;;;;;;5012978;28;20393;-86
2023/12/07 15:20:46;;;;;;;166.93;39.20;;;;;;;;;;5013459;28;20112;-86
2023/12/07 15:23:31;;;;;;;210.43;61.00;;;;;;;;;;5013117;28;20063;-86
2023/12/07 15:26:16;;;;;;;158.35;42.42;;;;;;;;;;5013538;28;20044;-86
2023/12/07 15:29:01;;;;;;;180.35;40.78;;;;;;;;;;5013489;28;20041;-86
2023/12/07 15:31:46;;;;;;;160.93;39.83;;;;;;;;;;5012621;28;20045;-86
2023/12/07 15:34:30;;;;;;;162.27;39.05;;;;;;;;;;5012826;28;20049;-85
2023/12/07 15:37:17;;;;;;;151.10;39.28;;;;;;;;;;5013386;28;20112;-86
2023/12/07 15:40:03;;;;;;;153.65;38.50;;;;;;;;;;5012046;28;20049;-86
2023/12/07 15:42:48;;;;;;;173.57;41.80;;;;;;;;;;5013227;28;20041;-86
2023/12/07 15:45:33;;;;;;;140.63;35.88;;;;;;;;;;5012652;28;20088;-88
2023/12/07 15:48:18;;;;;;;152.55;37.20;;;;;;;;;;5011201;28;20445;-86
2023/12/07 15:51:03;;;;;;;143.27;37.25;;;;;;;;;;5013141;28;20500;-85
2023/12/07 15:53:47;;;;;;;126.88;34.72;;;;;;;;;;5012492;28;20040;-86
2023/12/07 15:56:32;;;;;;;122.93;35.08;;;;;;;;;;5012836;28;20472;-85